DW8305 Hannover DE current weather conditions

sailwx.info

Wind from 225 at 8 knots gusting 12

Air temperature 5.6° C
Dewpoint 0.5° C

Last reported at 2019-Dec-10 23:47 UTC.
Time now 2019-Dec-11 00:51 UTC

Location: N 52°35' E 009°44'.
View on Google Maps.

See reports from other nearby stations

  
Tides and Currents Weather Stations Pressure Air Temp Water Temp Dewpoint Dewpoint Depression Visibility Wind Speed Wind Dir Waves Ship Positions
date/time (UTC)wind fromknots sea level pressurealtimeterstation pressurevisibilityair tempwater tempwave heightnotes
2019-Dec-10 23:47 225 8 gusting 12 5.6
2019-Dec-10 23:37 203 5 gusting 10 5.6
2019-Dec-10 23:27 203 5 gusting 9 5.6
2019-Dec-10 23:17 203 6 gusting 9 5.6
2019-Dec-10 23:07 225 3 gusting 7 5.6
2019-Dec-10 22:57 180 3 gusting 6 5.0
2019-Dec-10 22:47 158 3 gusting 8 5.0
2019-Dec-10 22:37 158 4 gusting 8 5.0
2019-Dec-10 22:27 135 3 gusting 5 5.0
2019-Dec-10 22:17 158 4 gusting 9 5.0
2019-Dec-10 22:07 158 6 gusting 9 4.4
2019-Dec-10 21:57 135 4 gusting 7 4.4
2019-Dec-10 21:47 158 3 gusting 6 4.4
2019-Dec-10 21:37 135 3 gusting 5 4.4
2019-Dec-10 21:27 203 3 gusting 6 4.4
2019-Dec-10 21:17 180 3 gusting 5 3.9
2019-Dec-10 21:07 135 2 gusting 5 3.9
2019-Dec-10 20:57 158 1 gusting 2 3.9
2019-Dec-10 20:47 158 3 gusting 6 3.9
2019-Dec-10 20:37 135 2 gusting 3 3.9
2019-Dec-10 20:27 135 3 gusting 6 3.9
2019-Dec-10 20:17 180 4 gusting 6 3.9
2019-Dec-10 20:07 158 3 gusting 3 3.3
2019-Dec-10 19:57 158 1 gusting 4 3.3
2019-Dec-10 19:47 158 1 gusting 4 3.3
2019-Dec-10 19:37 225 2 gusting 4 3.3
2019-Dec-10 19:27 180 2 gusting 5 3.3
2019-Dec-10 19:17 158 3 gusting 5 3.3
2019-Dec-10 19:07 158 1 gusting 3 3.3
2019-Dec-10 18:57 180 2 gusting 5 2.8
2019-Dec-10 18:47 158 2 gusting 4 2.8
2019-Dec-10 18:37 203 1 gusting 5 2.8
2019-Dec-10 18:27 180 3 gusting 6 2.8
2019-Dec-10 18:17 158 2 gusting 4 2.8
2019-Dec-10 18:07 158 2 gusting 4 2.8
2019-Dec-10 17:57 158 2 gusting 5 2.8
2019-Dec-10 17:47 180 1 gusting 4 2.8
2019-Dec-10 17:37 158 2 gusting 5 2.8
2019-Dec-10 17:27 135 2 gusting 4 2.8
2019-Dec-10 17:17 203 3 gusting 5 2.8
2019-Dec-10 17:07 158 3 gusting 5 2.8
2019-Dec-10 16:57 158 2 gusting 4 2.8
2019-Dec-10 16:47 158 1 gusting 3 2.8
2019-Dec-10 16:37 135 1 gusting 2 3.3
2019-Dec-10 16:27 135 0 gusting 2 3.3
2019-Dec-10 16:17 135 1 gusting 2 3.3
2019-Dec-10 16:07 135 0 gusting 1 3.9
2019-Dec-10 15:57 158 1 gusting 2 3.9
2019-Dec-10 15:47 180 2 gusting 4 3.9
2019-Dec-10 15:37 158 1 gusting 2 4.4
2019-Dec-10 15:27 158 0 gusting 1 4.4
2019-Dec-10 15:17 158 1 gusting 2 4.4
2019-Dec-10 15:07 203 1 gusting 4 5.0
2019-Dec-10 14:57 203 3 gusting 5 5.0
2019-Dec-10 14:47 225 2 gusting 5 5.0
2019-Dec-10 14:37 248 5 gusting 7 5.6
2019-Dec-10 14:27 203 1 gusting 5 5.6
2019-Dec-10 14:17 248 2 gusting 4 5.6
2019-Dec-10 14:07 203 1 gusting 3 5.6
2019-Dec-10 13:57 225 3 gusting 5 5.6
2019-Dec-10 13:47 225 3 gusting 6 5.6
2019-Dec-10 13:37 225 3 gusting 4 5.6
2019-Dec-10 13:27 248 5 gusting 7 5.6
2019-Dec-10 13:17 225 2 gusting 5 5.6
2019-Dec-10 13:07 248 3 gusting 4 5.6
2019-Dec-10 12:57 225 4 gusting 6 6.1
2019-Dec-10 12:47 203 4 gusting 6 6.1
2019-Dec-10 12:37 225 5 gusting 8 6.1
2019-Dec-10 12:27 225 6 gusting 8 6.1
2019-Dec-10 12:17 225 4 gusting 8 6.1
2019-Dec-10 12:07 270 5 gusting 8 5.6
2019-Dec-10 11:57 248 5 gusting 6 5.6
2019-Dec-10 11:47 248 3 gusting 6 5.6
2019-Dec-10 11:37 248 3 gusting 5 5.6
2019-Dec-10 11:27 225 3 gusting 4 5.6
2019-Dec-10 11:17 270 3 gusting 6 5.0
2019-Dec-10 11:07 270 4 gusting 6 5.0
2019-Dec-10 10:57 270 5 gusting 7 5.0
2019-Dec-10 10:47 270 1 gusting 3 5.0
2019-Dec-10 10:37 225 1 gusting 2 5.0
2019-Dec-10 10:27 248 2 gusting 5 4.4
2019-Dec-10 10:17 270 3 gusting 6 4.4
2019-Dec-10 10:07 270 4 gusting 6 3.9
2019-Dec-10 09:57 270 4 gusting 6 3.9
2019-Dec-10 09:47 270 2 gusting 6 3.3
2019-Dec-10 09:37 270 3 gusting 7 3.3
2019-Dec-10 09:27 225 1 gusting 2 3.3
2019-Dec-10 09:17 293 2 gusting 4 3.3
2019-Dec-10 09:07 270 2 gusting 4 2.8
2019-Dec-10 08:57 293 2 gusting 3 2.8
2019-Dec-10 08:47 270 2 gusting 3 2.2
2019-Dec-10 08:37 270 3 gusting 4 2.2
2019-Dec-10 08:27 270 1 gusting 2 2.2
2019-Dec-10 08:17 248 1 gusting 2 2.2
2019-Dec-10 08:07 270 3 gusting 5 2.2
2019-Dec-10 07:57 2.2
2019-Dec-10 07:47 248 1 gusting 1 2.2
2019-Dec-10 07:37 270 4 gusting 6 2.2
2019-Dec-10 07:27 270 1 gusting 2 2.2
2019-Dec-10 07:17 248 1 gusting 3 2.2
2019-Dec-10 07:07 270 0 gusting 1 2.2
2019-Dec-10 06:57 270 1 gusting 2 2.2
2019-Dec-10 06:47 270 0 gusting 0 2.2
2019-Dec-10 06:37 270 2 gusting 2 2.2
2019-Dec-10 06:27 270 1 gusting 2 2.8
2019-Dec-10 06:17 270 1 gusting 3 2.8
2019-Dec-10 06:07 270 2 gusting 3 2.8
2019-Dec-10 05:57 270 3 gusting 5 3.3
2019-Dec-10 05:47 293 2 gusting 3 3.3
2019-Dec-10 05:37 293 2 gusting 3 3.3
2019-Dec-10 05:27 270 1 gusting 2 3.3
2019-Dec-10 05:17 293 1 gusting 2 3.3
2019-Dec-10 05:07 270 6 gusting 11 3.3
2019-Dec-10 04:57 270 5 gusting 8 3.3
2019-Dec-10 04:47 270 5 gusting 7 3.3
2019-Dec-10 04:37 270 5 gusting 6 3.3
2019-Dec-10 04:27 293 3 gusting 3 3.3
2019-Dec-10 04:17 270 4 gusting 6 3.3
2019-Dec-10 04:07 270 6 gusting 9 3.3
2019-Dec-10 03:57 270 3 gusting 5 3.9
2019-Dec-10 03:47 293 4 gusting 6 3.9
2019-Dec-10 03:37 270 4 gusting 5 3.9
2019-Dec-10 03:27 270 3 gusting 5 3.9
2019-Dec-10 03:17 270 3 gusting 5 3.9
2019-Dec-10 03:07 270 5 gusting 8 3.9
2019-Dec-10 02:57 293 4 gusting 5 3.9
2019-Dec-10 02:47 270 5 gusting 7 3.9
2019-Dec-10 02:37 270 5 gusting 6 3.9
2019-Dec-10 02:27 270 6 gusting 7 3.3
2019-Dec-10 02:17 270 4 gusting 6 3.3
2019-Dec-10 02:07 270 6 gusting 8 3.9
2019-Dec-10 01:57 270 4 gusting 6 3.9
2019-Dec-10 01:47 270 4 gusting 6 3.9
2019-Dec-10 01:37 270 4 gusting 7 3.9
2019-Dec-10 01:27 270 7 gusting 12 3.9
2019-Dec-10 01:17 293 3 gusting 4 3.9
2019-Dec-10 01:07 293 5 gusting 6 3.9
2019-Dec-10 00:57 293 5 gusting 6 3.9
2019-Dec-10 00:47 270 6 gusting 9 3.9
2019-Dec-10 00:37 270 3 gusting 5 3.9
2019-Dec-10 00:27 293 5 gusting 7 3.9
2019-Dec-10 00:17 270 4 gusting 6 3.9
2019-Dec-10 00:07 293 4 gusting 6 4.4
2019-Dec-09 23:57 270 2 gusting 5 4.4
2019-Dec-09 23:47 270 3 gusting 5 4.4
2019-Dec-09 23:37 270 4 gusting 5 3.9
2019-Dec-09 23:27 270 4 gusting 6 3.9
2019-Dec-09 23:17 270 3 gusting 6 3.9
2019-Dec-09 23:07 270 3 gusting 6 4.4
2019-Dec-09 22:57 293 2 gusting 6 4.4
2019-Dec-09 22:47 293 3 gusting 6 4.4
2019-Dec-09 22:37 270 4 gusting 7 3.9
2019-Dec-09 22:27 270 3 gusting 6 4.4
2019-Dec-09 22:17 293 7 gusting 11 4.4
2019-Dec-09 22:07 293 6 gusting 9 5.0
2019-Dec-09 21:57 270 5 gusting 10 5.0
2019-Dec-09 21:47 293 7 gusting 12 5.0
2019-Dec-09 21:37 293 6 gusting 9 5.0
2019-Dec-09 21:27 270 5 gusting 10 5.0
2019-Dec-09 21:17 270 3 gusting 4 5.0
2019-Dec-09 21:07 270 5 gusting 6 5.0
2019-Dec-09 20:57 270 4 gusting 6 5.0
2019-Dec-09 20:47 270 4 gusting 6 5.0
2019-Dec-09 20:37 270 5 gusting 8 5.0
2019-Dec-09 20:27 293 6 gusting 7 5.0
2019-Dec-09 20:17 293 6 gusting 9 5.6
2019-Dec-09 20:07 270 4 gusting 6 5.6
2019-Dec-09 19:57 293 4 gusting 6 5.6
2019-Dec-09 19:47 293 4 gusting 7 5.6
2019-Dec-09 19:37 293 5 gusting 6 5.6
2019-Dec-09 19:27 270 6 gusting 8 5.6
2019-Dec-09 19:17 293 3 gusting 5 5.6
2019-Dec-09 19:07 270 5 gusting 7 5.6
2019-Dec-09 18:57 270 2 gusting 5 5.6
2019-Dec-09 18:47 293 3 gusting 6 6.1
2019-Dec-09 18:37 293 5 gusting 7 6.1
2019-Dec-09 18:27 293 3 gusting 5 6.1
2019-Dec-09 18:17 315 4 gusting 6 6.1
2019-Dec-09 18:07 293 5 gusting 7 6.1
2019-Dec-09 17:57 293 3 gusting 6 6.1
2019-Dec-09 17:47 270 1 gusting 4 6.1
2019-Dec-09 17:41 293 5 gusting 8 6.7
2019-Dec-09 17:27 270 4 gusting 9 6.7
2019-Dec-09 17:17 293 3 gusting 5 6.7
2019-Dec-09 17:07 270 4 gusting 6 6.7
2019-Dec-09 16:57 315 5 gusting 12 6.7
2019-Dec-09 16:47 270 3 gusting 6 6.7
2019-Dec-09 16:37 270 5 gusting 7 6.7
2019-Dec-09 16:27 270 6 gusting 8 6.7
2019-Dec-09 16:17 293 4 gusting 6 6.7
2019-Dec-09 16:07 293 3 gusting 6 6.7
2019-Dec-09 15:57 270 2 gusting 4 6.7
2019-Dec-09 15:47 270 5 gusting 8 6.7
2019-Dec-09 15:37 270 4 gusting 6 6.7
2019-Dec-09 15:27 270 1 gusting 4 6.7
2019-Dec-09 15:17 270 3 gusting 5 6.7
2019-Dec-09 15:07 270 4 gusting 6 6.7
2019-Dec-09 14:57 270 3 gusting 5 6.7
2019-Dec-09 14:47 270 5 gusting 8 6.7
2019-Dec-09 14:37 270 5 gusting 6 6.7
2019-Dec-09 14:27 270 3 gusting 5 6.1
2019-Dec-09 14:17 293 4 gusting 6 6.1
2019-Dec-09 14:07 270 5 gusting 9 6.7
2019-Dec-09 13:57 270 5 gusting 6 6.7
2019-Dec-09 13:47 293 5 gusting 6 6.7
2019-Dec-09 13:37 293 2 gusting 4 6.7
2019-Dec-09 13:27 270 4 gusting 5 6.1
2019-Dec-09 13:17 248 5 gusting 10 6.1
2019-Dec-09 13:07 248 2 gusting 3 6.1
2019-Dec-09 12:57 248 2 gusting 3 6.1
2019-Dec-09 12:47 248 6 gusting 9 6.7
2019-Dec-09 12:37 248 2 gusting 4 6.7
2019-Dec-09 12:27 248 4 gusting 5 6.7
2019-Dec-09 12:17 248 2 gusting 5 6.7
2019-Dec-09 12:07 225 3 gusting 4 6.7
2019-Dec-09 11:57 225 5 gusting 7 6.7
2019-Dec-09 11:47 225 3 gusting 6 6.7
2019-Dec-09 11:37 203 3 gusting 5 6.7
2019-Dec-09 11:27 203 1 gusting 2 6.7
2019-Dec-09 11:17 225 4 gusting 6 6.7
2019-Dec-09 11:07 225 3 gusting 5 6.7
2019-Dec-09 10:57 225 1 gusting 3 6.7
2019-Dec-09 10:47 225 3 gusting 4 6.7
2019-Dec-09 10:37 225 1 gusting 2 7.2
2019-Dec-09 10:27 225 4 gusting 6 7.2
2019-Dec-09 10:17 225 4 gusting 5 7.2
2019-Dec-09 10:07 203 4 gusting 8 7.2
2019-Dec-09 09:57 248 5 gusting 9 7.2
2019-Dec-09 09:47 225 3 gusting 6 7.8
2019-Dec-09 09:37 225 6 gusting 8 7.8
2019-Dec-09 09:27 225 6 gusting 10 7.8
2019-Dec-09 09:17 225 4 gusting 6 8.3
2019-Dec-09 09:07 248 4 gusting 7 7.8
2019-Dec-09 08:57 225 4 gusting 6 7.8
2019-Dec-09 08:47 203 2 gusting 4 7.8
2019-Dec-09 08:37 225 2 gusting 3 7.8
2019-Dec-09 08:27 225 5 gusting 7 7.8
2019-Dec-09 08:17 203 5 gusting 7 7.8
2019-Dec-09 08:07 225 5 gusting 7 7.8
2019-Dec-09 07:57 225 4 gusting 6 7.8
2019-Dec-09 07:47 248 5 gusting 7 7.8
2019-Dec-09 07:37 225 7 gusting 11 7.2
2019-Dec-09 07:27 203 4 gusting 7 7.2
2019-Dec-09 07:17 225 3 gusting 5 7.2
2019-Dec-09 07:07 225 5 gusting 8 7.8
2019-Dec-09 06:57 225 5 gusting 8 7.2
2019-Dec-09 06:47 225 6 gusting 8 7.2
2019-Dec-09 06:37 225 5 gusting 8 7.2
2019-Dec-09 06:27 225 3 gusting 6 7.2
2019-Dec-09 06:17 225 2 gusting 5 7.2
2019-Dec-09 06:07 225 3 gusting 5 7.2
2019-Dec-09 05:57 225 4 gusting 7 7.2
2019-Dec-09 05:47 225 4 gusting 6 7.2
2019-Dec-09 05:37 225 3 gusting 6 7.2
2019-Dec-09 05:27 225 5 gusting 7 7.2
2019-Dec-09 05:17 225 2 gusting 4 7.2
2019-Dec-09 05:07 225 2 gusting 3 6.7
2019-Dec-09 04:57 248 3 gusting 5 7.2
2019-Dec-09 04:47 248 5 gusting 6 7.2
2019-Dec-09 04:37 248 5 gusting 6 7.2
2019-Dec-09 04:27 225 5 gusting 6 7.2
2019-Dec-09 04:17 225 7 gusting 12 7.2
2019-Dec-09 04:07 248 4 gusting 6 7.2
2019-Dec-09 03:57 225 6 gusting 8 6.7
2019-Dec-09 03:47 225 4 gusting 10 6.7
2019-Dec-09 03:37 248 6 gusting 9 6.7
2019-Dec-09 03:27 248 3 gusting 6 6.7
2019-Dec-09 03:17 248 5 gusting 8 6.7
2019-Dec-09 03:07 270 4 gusting 6 6.7
2019-Dec-09 02:57 225 3 gusting 4 6.7
2019-Dec-09 02:47 225 7 gusting 11 6.7
2019-Dec-09 02:37 270 3 gusting 6 6.7
2019-Dec-09 02:27 248 2 gusting 4 7.2
2019-Dec-09 02:17 248 5 gusting 8 7.2
2019-Dec-09 02:07 248 6 gusting 9 7.2
2019-Dec-09 01:57 248 4 gusting 6 7.2
2019-Dec-09 01:47 225 3 gusting 6 7.2
2019-Dec-09 01:37 225 6 gusting 8 7.8
2019-Dec-09 01:27 270 5 gusting 8 7.2
2019-Dec-09 01:17 270 7 gusting 13 7.2
2019-Dec-09 01:07 270 5 gusting 7 7.2
2019-Dec-09 00:57 248 6 gusting 9 7.2
2019-Dec-09 00:47 248 6 gusting 12 7.2
2019-Dec-09 00:37 270 6 gusting 9 7.2
2019-Dec-09 00:27 248 6 gusting 11 6.7
2019-Dec-09 00:17 248 5 gusting 9 6.7
2019-Dec-09 00:07 270 5 gusting 7 6.7